sensor_id;sensor_type;location;lat;lon;timestamp;P1;durP1;ratioP1;P2;durP2;ratioP2
72728;SDS011;60843;52.062;4.508;2023-07-13T00:00:37;14.52;;;1.75;;
72728;SDS011;60843;52.062;4.508;2023-07-13T00:03:03;10.55;;;1.73;;
72728;SDS011;60843;52.062;4.508;2023-07-13T00:05:29;16.52;;;2.22;;
72728;SDS011;60843;52.062;4.508;2023-07-13T00:07:55;16.38;;;2.03;;
72728;SDS011;60843;52.062;4.508;2023-07-13T00:10:21;8.30;;;1.63;;
72728;SDS011;60843;52.062;4.508;2023-07-13T00:12:47;12.02;;;2.10;;
72728;SDS011;60843;52.062;4.508;2023-07-13T00:15:20;11.25;;;1.90;;
72728;SDS011;60843;52.062;4.508;2023-07-13T00:17:50;11.52;;;1.30;;
72728;SDS011;60843;52.062;4.508;2023-07-13T00:20:16;12.98;;;1.70;;
72728;SDS011;60843;52.062;4.508;2023-07-13T00:22:41;10.80;;;2.13;;
72728;SDS011;60843;52.062;4.508;2023-07-13T00:25:09;11.88;;;1.90;;
72728;SDS011;60843;52.062;4.508;2023-07-13T00:27:36;16.00;;;1.80;;
72728;SDS011;60843;52.062;4.508;2023-07-13T00:30:01;7.60;;;1.95;;
72728;SDS011;60843;52.062;4.508;2023-07-13T00:32:28;9.05;;;1.65;;
72728;SDS011;60843;52.062;4.508;2023-07-13T00:34:54;13.15;;;1.77;;
72728;SDS011;60843;52.062;4.508;2023-07-13T00:37:20;6.10;;;1.60;;
72728;SDS011;60843;52.062;4.508;2023-07-13T00:39:45;6.75;;;1.40;;
72728;SDS011;60843;52.062;4.508;2023-07-13T00:42:11;15.80;;;1.40;;
72728;SDS011;60843;52.062;4.508;2023-07-13T00:44:36;7.82;;;1.52;;
72728;SDS011;60843;52.062;4.508;2023-07-13T00:47:04;9.95;;;1.55;;
72728;SDS011;60843;52.062;4.508;2023-07-13T00:49:30;7.72;;;1.42;;
72728;SDS011;60843;52.062;4.508;2023-07-13T00:52:04;6.88;;;1.60;;
72728;SDS011;60843;52.062;4.508;2023-07-13T00:54:41;7.47;;;1.50;;
72728;SDS011;60843;52.062;4.508;2023-07-13T00:57:09;9.65;;;1.70;;
72728;SDS011;60843;52.062;4.508;2023-07-13T00:59:38;10.25;;;1.77;;
72728;SDS011;60843;52.062;4.508;2023-07-13T01:02:05;12.10;;;1.48;;
72728;SDS011;60843;52.062;4.508;2023-07-13T01:04:30;9.18;;;1.70;;
72728;SDS011;60843;52.062;4.508;2023-07-13T01:06:56;9.10;;;1.48;;
72728;SDS011;60843;52.062;4.508;2023-07-13T01:09:22;8.20;;;1.67;;
72728;SDS011;60843;52.062;4.508;2023-07-13T01:11:48;6.28;;;1.42;;
72728;SDS011;60843;52.062;4.508;2023-07-13T01:14:14;9.60;;;1.05;;
72728;SDS011;60843;52.062;4.508;2023-07-13T01:16:40;5.22;;;1.05;;
72728;SDS011;60843;52.062;4.508;2023-07-13T01:22:01;7.15;;;1.20;;
72728;SDS011;60843;52.062;4.508;2023-07-13T01:24:28;7.00;;;1.23;;
72728;SDS011;60843;52.062;4.508;2023-07-13T01:26:54;8.13;;;1.17;;
72728;SDS011;60843;52.062;4.508;2023-07-13T01:29:19;4.15;;;1.05;;
72728;SDS011;60843;52.062;4.508;2023-07-13T01:31:45;6.75;;;0.90;;
72728;SDS011;60843;52.062;4.508;2023-07-13T01:34:11;11.93;;;1.48;;
72728;SDS011;60843;52.062;4.508;2023-07-13T01:36:37;10.80;;;1.38;;
72728;SDS011;60843;52.062;4.508;2023-07-13T01:39:02;5.72;;;1.00;;
72728;SDS011;60843;52.062;4.508;2023-07-13T01:41:28;5.20;;;1.10;;
72728;SDS011;60843;52.062;4.508;2023-07-13T01:43:54;8.13;;;1.05;;
72728;SDS011;60843;52.062;4.508;2023-07-13T01:46:19;6.90;;;1.17;;
72728;SDS011;60843;52.062;4.508;2023-07-13T01:48:45;3.45;;;0.65;;
72728;SDS011;60843;52.062;4.508;2023-07-13T01:51:10;3.17;;;0.77;;
72728;SDS011;60843;52.062;4.508;2023-07-13T01:53:36;1.55;;;0.60;;
72728;SDS011;60843;52.062;4.508;2023-07-13T01:56:01;5.22;;;0.90;;
72728;SDS011;60843;52.062;4.508;2023-07-13T01:58:27;5.55;;;1.00;;
72728;SDS011;60843;52.062;4.508;2023-07-13T02:00:52;5.38;;;0.80;;
72728;SDS011;60843;52.062;4.508;2023-07-13T02:03:18;3.30;;;0.85;;
72728;SDS011;60843;52.062;4.508;2023-07-13T02:05:44;4.45;;;0.98;;
72728;SDS011;60843;52.062;4.508;2023-07-13T02:08:10;4.53;;;0.85;;
72728;SDS011;60843;52.062;4.508;2023-07-13T02:10:36;6.63;;;1.40;;
72728;SDS011;60843;52.062;4.508;2023-07-13T02:13:03;4.43;;;1.05;;
72728;SDS011;60843;52.062;4.508;2023-07-13T02:15:30;6.63;;;1.00;;
72728;SDS011;60843;52.062;4.508;2023-07-13T02:17:56;3.65;;;0.70;;
72728;SDS011;60843;52.062;4.508;2023-07-13T02:20:21;6.15;;;0.82;;
72728;SDS011;60843;52.062;4.508;2023-07-13T02:22:47;1.88;;;0.63;;
72728;SDS011;60843;52.062;4.508;2023-07-13T02:25:13;4.28;;;0.75;;
72728;SDS011;60843;52.062;4.508;2023-07-13T02:27:39;2.65;;;0.70;;
72728;SDS011;60843;52.062;4.508;2023-07-13T02:30:04;2.28;;;0.60;;
72728;SDS011;60843;52.062;4.508;2023-07-13T02:32:31;1.35;;;0.50;;
72728;SDS011;60843;52.062;4.508;2023-07-13T02:34:57;2.65;;;0.68;;
72728;SDS011;60843;52.062;4.508;2023-07-13T02:37:22;4.05;;;0.73;;
72728;SDS011;60843;52.062;4.508;2023-07-13T02:39:48;5.13;;;0.70;;
72728;SDS011;60843;52.062;4.508;2023-07-13T02:42:13;4.55;;;1.08;;
72728;SDS011;60843;52.062;4.508;2023-07-13T02:44:39;5.22;;;0.80;;
72728;SDS011;60843;52.062;4.508;2023-07-13T02:47:04;4.20;;;0.70;;
72728;SDS011;60843;52.062;4.508;2023-07-13T02:49:30;3.85;;;0.60;;
72728;SDS011;60843;52.062;4.508;2023-07-13T02:51:56;8.23;;;1.00;;
72728;SDS011;60843;52.062;4.508;2023-07-13T02:54:21;6.43;;;0.82;;
72728;SDS011;60843;52.062;4.508;2023-07-13T02:56:46;2.33;;;0.82;;
72728;SDS011;60843;52.062;4.508;2023-07-13T02:59:12;6.35;;;0.98;;
72728;SDS011;60843;52.062;4.508;2023-07-13T03:01:37;5.22;;;1.00;;
72728;SDS011;60843;52.062;4.508;2023-07-13T03:04:03;10.15;;;1.35;;
72728;SDS011;60843;52.062;4.508;2023-07-13T03:06:30;3.50;;;0.93;;
72728;SDS011;60843;52.062;4.508;2023-07-13T03:08:56;4.13;;;0.88;;
72728;SDS011;60843;52.062;4.508;2023-07-13T03:11:22;9.85;;;1.27;;
72728;SDS011;60843;52.062;4.508;2023-07-13T03:13:47;7.22;;;1.30;;
72728;SDS011;60843;52.062;4.508;2023-07-13T03:16:13;6.13;;;0.95;;
72728;SDS011;60843;52.062;4.508;2023-07-13T03:18:40;4.50;;;1.10;;
72728;SDS011;60843;52.062;4.508;2023-07-13T03:21:06;7.32;;;1.23;;
72728;SDS011;60843;52.062;4.508;2023-07-13T03:23:31;8.80;;;1.50;;
72728;SDS011;60843;52.062;4.508;2023-07-13T03:26:01;6.63;;;1.27;;
72728;SDS011;60843;52.062;4.508;2023-07-13T03:28:34;6.97;;;0.93;;
72728;SDS011;60843;52.062;4.508;2023-07-13T03:31:04;7.25;;;1.23;;
72728;SDS011;60843;52.062;4.508;2023-07-13T03:35:59;6.87;;;1.47;;
72728;SDS011;60843;52.062;4.508;2023-07-13T03:38:25;7.43;;;1.55;;
72728;SDS011;60843;52.062;4.508;2023-07-13T03:40:51;8.82;;;1.50;;
72728;SDS011;60843;52.062;4.508;2023-07-13T03:43:17;9.65;;;1.90;;
72728;SDS011;60843;52.062;4.508;2023-07-13T03:45:42;11.77;;;1.77;;
72728;SDS011;60843;52.062;4.508;2023-07-13T03:48:08;6.70;;;1.40;;
72728;SDS011;60843;52.062;4.508;2023-07-13T03:50:34;8.10;;;1.40;;
72728;SDS011;60843;52.062;4.508;2023-07-13T03:52:59;9.77;;;1.58;;
72728;SDS011;60843;52.062;4.508;2023-07-13T03:55:25;10.30;;;1.40;;
72728;SDS011;60843;52.062;4.508;2023-07-13T03:57:53;8.38;;;1.65;;
72728;SDS011;60843;52.062;4.508;2023-07-13T04:00:22;12.95;;;1.77;;
72728;SDS011;60843;52.062;4.508;2023-07-13T04:02:48;6.53;;;1.48;;
72728;SDS011;60843;52.062;4.508;2023-07-13T04:05:14;6.65;;;1.83;;
72728;SDS011;60843;52.062;4.508;2023-07-13T04:07:40;12.65;;;1.48;;
72728;SDS011;60843;52.062;4.508;2023-07-13T04:10:06;10.32;;;1.85;;
72728;SDS011;60843;52.062;4.508;2023-07-13T04:12:31;9.73;;;1.85;;
72728;SDS011;60843;52.062;4.508;2023-07-13T04:14:57;9.82;;;1.98;;
72728;SDS011;60843;52.062;4.508;2023-07-13T04:17:22;7.63;;;1.93;;
72728;SDS011;60843;52.062;4.508;2023-07-13T04:19:48;11.02;;;1.70;;
72728;SDS011;60843;52.062;4.508;2023-07-13T04:22:14;12.43;;;1.88;;
72728;SDS011;60843;52.062;4.508;2023-07-13T04:24:39;11.15;;;2.03;;
72728;SDS011;60843;52.062;4.508;2023-07-13T04:27:06;14.05;;;1.95;;
72728;SDS011;60843;52.062;4.508;2023-07-13T04:29:31;8.82;;;1.67;;
72728;SDS011;60843;52.062;4.508;2023-07-13T04:31:57;7.85;;;1.85;;
72728;SDS011;60843;52.062;4.508;2023-07-13T04:34:23;7.25;;;1.80;;
72728;SDS011;60843;52.062;4.508;2023-07-13T04:36:49;10.60;;;1.88;;
72728;SDS011;60843;52.062;4.508;2023-07-13T04:39:15;11.65;;;1.73;;
72728;SDS011;60843;52.062;4.508;2023-07-13T04:41:40;9.45;;;1.63;;
72728;SDS011;60843;52.062;4.508;2023-07-13T04:44:06;9.73;;;1.80;;
72728;SDS011;60843;52.062;4.508;2023-07-13T04:46:31;11.32;;;1.80;;
72728;SDS011;60843;52.062;4.508;2023-07-13T04:48:56;6.50;;;1.75;;
72728;SDS011;60843;52.062;4.508;2023-07-13T04:51:23;7.70;;;1.58;;
72728;SDS011;60843;52.062;4.508;2023-07-13T04:53:49;7.13;;;1.27;;
72728;SDS011;60843;52.062;4.508;2023-07-13T04:56:14;5.33;;;1.50;;
72728;SDS011;60843;52.062;4.508;2023-07-13T04:58:40;6.78;;;1.42;;
72728;SDS011;60843;52.062;4.508;2023-07-13T05:01:05;8.35;;;1.63;;
72728;SDS011;60843;52.062;4.508;2023-07-13T05:03:31;12.40;;;1.73;;
72728;SDS011;60843;52.062;4.508;2023-07-13T05:05:58;10.07;;;1.35;;
72728;SDS011;60843;52.062;4.508;2023-07-13T05:08:25;8.82;;;1.60;;
72728;SDS011;60843;52.062;4.508;2023-07-13T05:10:51;5.00;;;1.30;;
72728;SDS011;60843;52.062;4.508;2023-07-13T05:13:17;8.48;;;1.75;;
72728;SDS011;60843;52.062;4.508;2023-07-13T05:15:42;9.40;;;1.50;;
72728;SDS011;60843;52.062;4.508;2023-07-13T05:18:08;7.53;;;1.38;;
72728;SDS011;60843;52.062;4.508;2023-07-13T05:20:33;6.93;;;1.40;;
72728;SDS011;60843;52.062;4.508;2023-07-13T05:22:59;5.85;;;1.30;;
72728;SDS011;60843;52.062;4.508;2023-07-13T05:25:24;7.07;;;1.48;;
72728;SDS011;60843;52.062;4.508;2023-07-13T05:27:49;5.13;;;1.40;;
72728;SDS011;60843;52.062;4.508;2023-07-13T05:30:15;5.13;;;1.15;;
72728;SDS011;60843;52.062;4.508;2023-07-13T05:32:40;7.60;;;1.42;;
72728;SDS011;60843;52.062;4.508;2023-07-13T05:35:06;5.18;;;1.08;;
72728;SDS011;60843;52.062;4.508;2023-07-13T05:37:32;4.43;;;1.27;;
72728;SDS011;60843;52.062;4.508;2023-07-13T05:39:57;4.90;;;1.37;;
72728;SDS011;60843;52.062;4.508;2023-07-13T05:42:23;6.72;;;1.20;;
72728;SDS011;60843;52.062;4.508;2023-07-13T05:44:48;5.90;;;1.52;;
72728;SDS011;60843;52.062;4.508;2023-07-13T05:47:13;4.38;;;1.35;;
72728;SDS011;60843;52.062;4.508;2023-07-13T05:49:40;3.78;;;1.00;;
72728;SDS011;60843;52.062;4.508;2023-07-13T05:52:05;3.75;;;0.90;;
72728;SDS011;60843;52.062;4.508;2023-07-13T05:54:31;7.60;;;1.30;;
72728;SDS011;60843;52.062;4.508;2023-07-13T05:56:56;5.55;;;1.40;;
72728;SDS011;60843;52.062;4.508;2023-07-13T05:59:22;5.35;;;1.40;;
72728;SDS011;60843;52.062;4.508;2023-07-13T06:01:48;4.53;;;0.98;;
72728;SDS011;60843;52.062;4.508;2023-07-13T06:04:14;3.55;;;1.15;;
72728;SDS011;60843;52.062;4.508;2023-07-13T06:06:39;3.70;;;1.27;;
72728;SDS011;60843;52.062;4.508;2023-07-13T06:09:05;6.70;;;1.85;;
72728;SDS011;60843;52.062;4.508;2023-07-13T06:11:30;7.45;;;1.50;;
72728;SDS011;60843;52.062;4.508;2023-07-13T06:13:56;7.47;;;2.10;;
72728;SDS011;60843;52.062;4.508;2023-07-13T06:16:21;3.28;;;1.02;;
72728;SDS011;60843;52.062;4.508;2023-07-13T06:18:47;3.75;;;1.10;;
72728;SDS011;60843;52.062;4.508;2023-07-13T06:21:16;2.38;;;1.00;;
72728;SDS011;60843;52.062;4.508;2023-07-13T06:23:46;9.13;;;1.40;;
72728;SDS011;60843;52.062;4.508;2023-07-13T06:26:13;6.35;;;1.30;;
72728;SDS011;60843;52.062;4.508;2023-07-13T06:28:39;7.25;;;1.30;;
72728;SDS011;60843;52.062;4.508;2023-07-13T06:31:08;5.00;;;1.33;;
72728;SDS011;60843;52.062;4.508;2023-07-13T06:33:34;4.93;;;1.10;;
72728;SDS011;60843;52.062;4.508;2023-07-13T06:36:00;5.70;;;1.08;;
72728;SDS011;60843;52.062;4.508;2023-07-13T06:38:27;5.70;;;1.25;;
72728;SDS011;60843;52.062;4.508;2023-07-13T06:40:52;4.78;;;1.35;;
72728;SDS011;60843;52.062;4.508;2023-07-13T06:43:18;6.32;;;1.25;;
72728;SDS011;60843;52.062;4.508;2023-07-13T06:48:12;5.95;;;1.02;;
72728;SDS011;60843;52.062;4.508;2023-07-13T06:50:38;7.10;;;1.40;;
72728;SDS011;60843;52.062;4.508;2023-07-13T06:53:04;8.93;;;1.20;;
72728;SDS011;60843;52.062;4.508;2023-07-13T06:55:29;4.85;;;1.27;;
72728;SDS011;60843;52.062;4.508;2023-07-13T06:57:55;5.65;;;1.00;;
72728;SDS011;60843;52.062;4.508;2023-07-13T07:00:20;3.10;;;1.10;;
72728;SDS011;60843;52.062;4.508;2023-07-13T07:02:46;4.78;;;1.25;;
72728;SDS011;60843;52.062;4.508;2023-07-13T07:05:11;5.28;;;1.35;;
72728;SDS011;60843;52.062;4.508;2023-07-13T07:07:37;7.82;;;1.23;;
72728;SDS011;60843;52.062;4.508;2023-07-13T07:10:02;4.95;;;1.05;;
72728;SDS011;60843;52.062;4.508;2023-07-13T07:12:28;4.95;;;1.23;;
72728;SDS011;60843;52.062;4.508;2023-07-13T07:14:53;5.30;;;1.42;;
72728;SDS011;60843;52.062;4.508;2023-07-13T07:17:19;4.90;;;1.40;;
72728;SDS011;60843;52.062;4.508;2023-07-13T07:19:44;2.95;;;1.17;;
72728;SDS011;60843;52.062;4.508;2023-07-13T07:22:10;3.58;;;1.05;;
72728;SDS011;60843;52.062;4.508;2023-07-13T07:24:35;6.95;;;1.30;;
72728;SDS011;60843;52.062;4.508;2023-07-13T07:27:01;2.83;;;0.98;;
72728;SDS011;60843;52.062;4.508;2023-07-13T07:29:26;4.65;;;1.30;;
72728;SDS011;60843;52.062;4.508;2023-07-13T07:31:52;4.70;;;1.10;;
72728;SDS011;60843;52.062;4.508;2023-07-13T07:34:18;4.63;;;1.20;;
72728;SDS011;60843;52.062;4.508;2023-07-13T07:36:44;6.38;;;1.20;;
72728;SDS011;60843;52.062;4.508;2023-07-13T07:39:10;5.35;;;1.35;;
72728;SDS011;60843;52.062;4.508;2023-07-13T07:41:36;4.85;;;1.05;;
72728;SDS011;60843;52.062;4.508;2023-07-13T07:44:02;6.53;;;1.23;;
72728;SDS011;60843;52.062;4.508;2023-07-13T07:46:28;3.63;;;1.00;;
72728;SDS011;60843;52.062;4.508;2023-07-13T07:48:54;5.60;;;1.13;;
72728;SDS011;60843;52.062;4.508;2023-07-13T07:51:20;3.78;;;1.98;;
72728;SDS011;60843;52.062;4.508;2023-07-13T07:53:46;4.45;;;1.30;;
72728;SDS011;60843;52.062;4.508;2023-07-13T07:56:12;6.45;;;1.33;;
72728;SDS011;60843;52.062;4.508;2023-07-13T07:58:38;2.15;;;0.98;;
72728;SDS011;60843;52.062;4.508;2023-07-13T08:01:04;3.70;;;1.23;;
72728;SDS011;60843;52.062;4.508;2023-07-13T08:03:30;7.32;;;1.67;;
72728;SDS011;60843;52.062;4.508;2023-07-13T08:05:56;6.63;;;1.20;;
72728;SDS011;60843;52.062;4.508;2023-07-13T08:08:21;2.85;;;1.20;;
72728;SDS011;60843;52.062;4.508;2023-07-13T08:10:47;1.60;;;0.70;;
72728;SDS011;60843;52.062;4.508;2023-07-13T08:13:13;4.72;;;1.50;;
72728;SDS011;60843;52.062;4.508;2023-07-13T08:15:38;5.65;;;1.00;;
72728;SDS011;60843;52.062;4.508;2023-07-13T08:18:04;3.45;;;1.05;;
72728;SDS011;60843;52.062;4.508;2023-07-13T08:20:29;5.05;;;1.30;;
72728;SDS011;60843;52.062;4.508;2023-07-13T08:22:55;3.90;;;1.20;;
72728;SDS011;60843;52.062;4.508;2023-07-13T08:25:20;4.07;;;1.10;;
72728;SDS011;60843;52.062;4.508;2023-07-13T08:27:47;3.92;;;1.50;;
72728;SDS011;60843;52.062;4.508;2023-07-13T08:30:12;4.13;;;1.30;;
72728;SDS011;60843;52.062;4.508;2023-07-13T08:32:37;6.40;;;1.30;;
72728;SDS011;60843;52.062;4.508;2023-07-13T08:35:04;4.03;;;1.50;;
72728;SDS011;60843;52.062;4.508;2023-07-13T08:37:30;4.20;;;1.13;;
72728;SDS011;60843;52.062;4.508;2023-07-13T08:39:55;2.78;;;1.10;;
72728;SDS011;60843;52.062;4.508;2023-07-13T08:42:25;2.42;;;0.93;;
72728;SDS011;60843;52.062;4.508;2023-07-13T08:47:48;5.00;;;1.23;;
72728;SDS011;60843;52.062;4.508;2023-07-13T08:50:19;3.95;;;1.20;;
72728;SDS011;60843;52.062;4.508;2023-07-13T08:52:49;8.63;;;1.55;;
72728;SDS011;60843;52.062;4.508;2023-07-13T08:55:20;5.20;;;1.40;;
72728;SDS011;60843;52.062;4.508;2023-07-13T08:57:48;5.28;;;1.30;;
72728;SDS011;60843;52.062;4.508;2023-07-13T09:00:18;3.92;;;1.13;;
72728;SDS011;60843;52.062;4.508;2023-07-13T09:05:24;4.13;;;1.77;;
72728;SDS011;60843;52.062;4.508;2023-07-13T09:10:46;4.07;;;1.55;;
72728;SDS011;60843;52.062;4.508;2023-07-13T09:13:20;5.13;;;1.17;;
72728;SDS011;60843;52.062;4.508;2023-07-13T09:15:51;4.50;;;0.95;;
72728;SDS011;60843;52.062;4.508;2023-07-13T09:18:32;2.58;;;1.05;;
72728;SDS011;60843;52.062;4.508;2023-07-13T09:21:02;6.47;;;2.00;;
72728;SDS011;60843;52.062;4.508;2023-07-13T09:23:29;3.50;;;1.20;;
72728;SDS011;60843;52.062;4.508;2023-07-13T09:26:00;4.03;;;1.15;;
72728;SDS011;60843;52.062;4.508;2023-07-13T09:28:30;4.53;;;1.38;;
72728;SDS011;60843;52.062;4.508;2023-07-13T09:33:30;3.95;;;1.38;;
72728;SDS011;60843;52.062;4.508;2023-07-13T09:35:56;10.80;;;3.92;;
72728;SDS011;60843;52.062;4.508;2023-07-13T09:38:23;5.22;;;1.67;;
72728;SDS011;60843;52.062;4.508;2023-07-13T09:44:01;3.72;;;1.38;;
72728;SDS011;60843;52.062;4.508;2023-07-13T09:46:37;7.30;;;1.52;;
72728;SDS011;60843;52.062;4.508;2023-07-13T09:49:04;7.00;;;1.40;;
72728;SDS011;60843;52.062;4.508;2023-07-13T09:51:29;4.25;;;1.08;;
72728;SDS011;60843;52.062;4.508;2023-07-13T09:53:55;4.57;;;1.25;;
72728;SDS011;60843;52.062;4.508;2023-07-13T09:56:21;4.35;;;1.27;;
72728;SDS011;60843;52.062;4.508;2023-07-13T09:58:47;18.75;;;6.28;;
72728;SDS011;60843;52.062;4.508;2023-07-13T10:03:51;4.47;;;1.40;;
72728;SDS011;60843;52.062;4.508;2023-07-13T10:06:19;5.13;;;1.35;;
72728;SDS011;60843;52.062;4.508;2023-07-13T10:08:51;9.05;;;1.33;;
72728;SDS011;60843;52.062;4.508;2023-07-13T10:11:26;3.70;;;1.48;;
72728;SDS011;60843;52.062;4.508;2023-07-13T10:14:01;8.60;;;1.52;;
72728;SDS011;60843;52.062;4.508;2023-07-13T10:16:57;5.65;;;1.50;;
72728;SDS011;60843;52.062;4.508;2023-07-13T10:19:26;3.70;;;1.35;;
72728;SDS011;60843;52.062;4.508;2023-07-13T10:21:57;5.00;;;1.17;;
72728;SDS011;60843;52.062;4.508;2023-07-13T10:24:30;5.40;;;1.67;;
72728;SDS011;60843;52.062;4.508;2023-07-13T10:27:00;7.82;;;1.40;;
72728;SDS011;60843;52.062;4.508;2023-07-13T10:29:29;3.65;;;1.23;;
72728;SDS011;60843;52.062;4.508;2023-07-13T10:31:56;3.03;;;1.15;;
72728;SDS011;60843;52.062;4.508;2023-07-13T10:34:22;2.60;;;1.40;;
72728;SDS011;60843;52.062;4.508;2023-07-13T10:36:48;6.47;;;1.30;;
72728;SDS011;60843;52.062;4.508;2023-07-13T10:39:18;3.40;;;1.55;;
72728;SDS011;60843;52.062;4.508;2023-07-13T10:41:46;4.25;;;1.25;;
72728;SDS011;60843;52.062;4.508;2023-07-13T10:44:17;3.97;;;1.35;;
72728;SDS011;60843;52.062;4.508;2023-07-13T10:46:46;4.05;;;1.25;;
72728;SDS011;60843;52.062;4.508;2023-07-13T10:49:13;3.08;;;1.10;;
72728;SDS011;60843;52.062;4.508;2023-07-13T10:51:39;6.20;;;1.20;;
72728;SDS011;60843;52.062;4.508;2023-07-13T10:56:34;5.75;;;1.40;;
72728;SDS011;60843;52.062;4.508;2023-07-13T10:59:46;6.57;;;1.63;;
72728;SDS011;60843;52.062;4.508;2023-07-13T11:01:56;3.00;;;1.20;;
72728;SDS011;60843;52.062;4.508;2023-07-13T11:04:24;2.85;;;1.10;;
72728;SDS011;60843;52.062;4.508;2023-07-13T11:06:52;3.90;;;1.27;;
72728;SDS011;60843;52.062;4.508;2023-07-13T11:11:47;5.53;;;1.38;;
72728;SDS011;60843;52.062;4.508;2023-07-13T11:14:30;5.15;;;1.80;;
72728;SDS011;60843;52.062;4.508;2023-07-13T11:17:23;4.43;;;1.42;;
72728;SDS011;60843;52.062;4.508;2023-07-13T11:19:57;3.00;;;1.33;;
72728;SDS011;60843;52.062;4.508;2023-07-13T11:22:47;8.95;;;1.38;;
72728;SDS011;60843;52.062;4.508;2023-07-13T11:38:12;6.10;;;1.42;;
72728;SDS011;60843;52.062;4.508;2023-07-13T11:40:40;4.78;;;1.40;;
72728;SDS011;60843;52.062;4.508;2023-07-13T11:43:06;5.80;;;1.35;;
72728;SDS011;60843;52.062;4.508;2023-07-13T11:45:32;1.75;;;0.93;;
72728;SDS011;60843;52.062;4.508;2023-07-13T11:47:57;3.40;;;1.00;;
72728;SDS011;60843;52.062;4.508;2023-07-13T11:50:25;3.10;;;1.50;;
72728;SDS011;60843;52.062;4.508;2023-07-13T11:52:52;3.72;;;1.25;;
72728;SDS011;60843;52.062;4.508;2023-07-13T11:55:20;5.63;;;1.75;;
72728;SDS011;60843;52.062;4.508;2023-07-13T11:58:05;2.20;;;1.20;;
72728;SDS011;60843;52.062;4.508;2023-07-13T12:00:32;3.05;;;1.30;;
72728;SDS011;60843;52.062;4.508;2023-07-13T12:02:59;1.65;;;0.82;;
72728;SDS011;60843;52.062;4.508;2023-07-13T12:05:25;2.15;;;1.20;;
72728;SDS011;60843;52.062;4.508;2023-07-13T12:07:51;6.32;;;1.88;;
72728;SDS011;60843;52.062;4.508;2023-07-13T12:15:32;3.90;;;1.30;;
72728;SDS011;60843;52.062;4.508;2023-07-13T12:18:20;2.20;;;1.13;;
72728;SDS011;60843;52.062;4.508;2023-07-13T12:20:48;5.78;;;1.30;;
72728;SDS011;60843;52.062;4.508;2023-07-13T12:23:20;2.47;;;1.48;;
72728;SDS011;60843;52.062;4.508;2023-07-13T12:25:50;2.75;;;0.85;;
72728;SDS011;60843;52.062;4.508;2023-07-13T12:28:20;4.32;;;1.00;;
72728;SDS011;60843;52.062;4.508;2023-07-13T12:30:47;5.63;;;1.42;;
72728;SDS011;60843;52.062;4.508;2023-07-13T12:33:13;2.38;;;1.08;;
72728;SDS011;60843;52.062;4.508;2023-07-13T12:35:40;3.72;;;1.40;;
72728;SDS011;60843;52.062;4.508;2023-07-13T12:38:12;3.15;;;1.10;;
72728;SDS011;60843;52.062;4.508;2023-07-13T12:40:38;5.05;;;1.00;;
72728;SDS011;60843;52.062;4.508;2023-07-13T12:43:09;1.88;;;0.93;;
72728;SDS011;60843;52.062;4.508;2023-07-13T12:45:36;2.83;;;1.02;;
72728;SDS011;60843;52.062;4.508;2023-07-13T12:48:10;4.53;;;1.33;;
72728;SDS011;60843;52.062;4.508;2023-07-13T12:50:40;2.33;;;1.15;;
72728;SDS011;60843;52.062;4.508;2023-07-13T12:53:15;5.55;;;1.20;;
72728;SDS011;60843;52.062;4.508;2023-07-13T12:55:46;4.15;;;1.25;;
72728;SDS011;60843;52.062;4.508;2023-07-13T13:01:03;2.10;;;0.93;;
72728;SDS011;60843;52.062;4.508;2023-07-13T13:03:35;4.15;;;1.10;;
72728;SDS011;60843;52.062;4.508;2023-07-13T13:06:02;5.95;;;1.40;;
72728;SDS011;60843;52.062;4.508;2023-07-13T13:08:30;3.75;;;1.08;;
72728;SDS011;60843;52.062;4.508;2023-07-13T13:10:57;2.15;;;1.08;;
72728;SDS011;60843;52.062;4.508;2023-07-13T13:13:23;4.07;;;1.17;;
72728;SDS011;60843;52.062;4.508;2023-07-13T13:15:49;3.75;;;1.10;;
72728;SDS011;60843;52.062;4.508;2023-07-13T13:18:16;4.30;;;1.08;;
72728;SDS011;60843;52.062;4.508;2023-07-13T13:20:43;3.17;;;1.13;;
72728;SDS011;60843;52.062;4.508;2023-07-13T13:23:15;4.30;;;1.30;;
72728;SDS011;60843;52.062;4.508;2023-07-13T13:25:43;1.65;;;1.02;;
72728;SDS011;60843;52.062;4.508;2023-07-13T13:28:13;3.85;;;1.50;;
72728;SDS011;60843;52.062;4.508;2023-07-13T13:30:41;2.83;;;0.77;;
72728;SDS011;60843;52.062;4.508;2023-07-13T13:33:11;2.22;;;0.73;;
72728;SDS011;60843;52.062;4.508;2023-07-13T13:35:38;2.42;;;0.85;;
72728;SDS011;60843;52.062;4.508;2023-07-13T13:38:48;2.72;;;0.63;;
72728;SDS011;60843;52.062;4.508;2023-07-13T13:40:54;4.68;;;1.10;;
72728;SDS011;60843;52.062;4.508;2023-07-13T13:43:25;6.65;;;1.20;;
72728;SDS011;60843;52.062;4.508;2023-07-13T13:45:52;3.78;;;1.00;;
72728;SDS011;60843;52.062;4.508;2023-07-13T13:48:26;2.25;;;0.90;;
72728;SDS011;60843;52.062;4.508;2023-07-13T13:50:56;2.92;;;0.95;;
72728;SDS011;60843;52.062;4.508;2023-07-13T13:53:23;2.00;;;0.90;;
72728;SDS011;60843;52.062;4.508;2023-07-13T13:55:48;3.40;;;1.00;;
72728;SDS011;60843;52.062;4.508;2023-07-13T13:58:14;1.00;;;0.60;;
72728;SDS011;60843;52.062;4.508;2023-07-13T14:00:40;2.92;;;0.85;;
72728;SDS011;60843;52.062;4.508;2023-07-13T14:03:08;2.17;;;0.80;;
72728;SDS011;60843;52.062;4.508;2023-07-13T14:05:43;2.13;;;0.80;;
72728;SDS011;60843;52.062;4.508;2023-07-13T14:08:12;4.70;;;0.82;;
72728;SDS011;60843;52.062;4.508;2023-07-13T14:10:42;4.25;;;0.82;;
72728;SDS011;60843;52.062;4.508;2023-07-13T14:13:13;4.57;;;0.95;;
72728;SDS011;60843;52.062;4.508;2023-07-13T14:15:43;3.10;;;0.82;;
72728;SDS011;60843;52.062;4.508;2023-07-13T14:18:10;1.42;;;0.57;;
72728;SDS011;60843;52.062;4.508;2023-07-13T14:20:36;2.90;;;0.73;;
72728;SDS011;60843;52.062;4.508;2023-07-13T14:23:02;1.30;;;0.80;;
72728;SDS011;60843;52.062;4.508;2023-07-13T14:25:27;2.17;;;0.73;;
72728;SDS011;60843;52.062;4.508;2023-07-13T14:27:54;2.80;;;0.75;;
72728;SDS011;60843;52.062;4.508;2023-07-13T14:30:24;1.77;;;0.80;;
72728;SDS011;60843;52.062;4.508;2023-07-13T14:35:25;4.30;;;1.23;;
72728;SDS011;60843;52.062;4.508;2023-07-13T14:37:50;5.38;;;0.80;;
72728;SDS011;60843;52.062;4.508;2023-07-13T14:40:21;3.97;;;1.20;;
72728;SDS011;60843;52.062;4.508;2023-07-13T14:42:51;6.03;;;1.10;;
72728;SDS011;60843;52.062;4.508;2023-07-13T14:45:17;3.58;;;0.88;;
72728;SDS011;60843;52.062;4.508;2023-07-13T14:47:44;3.08;;;1.00;;
72728;SDS011;60843;52.062;4.508;2023-07-13T14:50:20;3.88;;;0.65;;
72728;SDS011;60843;52.062;4.508;2023-07-13T14:53:00;3.67;;;0.70;;
72728;SDS011;60843;52.062;4.508;2023-07-13T14:55:25;1.70;;;0.80;;
72728;SDS011;60843;52.062;4.508;2023-07-13T14:57:51;2.03;;;0.90;;
72728;SDS011;60843;52.062;4.508;2023-07-13T15:00:18;3.40;;;1.00;;
72728;SDS011;60843;52.062;4.508;2023-07-13T15:02:50;1.42;;;0.70;;
72728;SDS011;60843;52.062;4.508;2023-07-13T15:05:17;3.00;;;1.02;;
72728;SDS011;60843;52.062;4.508;2023-07-13T15:07:45;1.67;;;0.70;;
72728;SDS011;60843;52.062;4.508;2023-07-13T15:10:21;4.97;;;1.17;;
72728;SDS011;60843;52.062;4.508;2023-07-13T15:12:50;3.58;;;0.80;;
72728;SDS011;60843;52.062;4.508;2023-07-13T15:15:17;2.80;;;1.00;;
72728;SDS011;60843;52.062;4.508;2023-07-13T15:17:43;2.63;;;0.82;;
72728;SDS011;60843;52.062;4.508;2023-07-13T15:22:44;1.45;;;0.60;;
72728;SDS011;60843;52.062;4.508;2023-07-13T15:25:15;1.23;;;0.60;;
72728;SDS011;60843;52.062;4.508;2023-07-13T15:27:59;1.45;;;0.65;;
72728;SDS011;60843;52.062;4.508;2023-07-13T15:30:27;2.08;;;0.77;;
72728;SDS011;60843;52.062;4.508;2023-07-13T15:32:55;0.95;;;0.68;;
72728;SDS011;60843;52.062;4.508;2023-07-13T15:35:24;2.83;;;0.73;;
72728;SDS011;60843;52.062;4.508;2023-07-13T15:37:51;5.55;;;1.00;;
72728;SDS011;60843;52.062;4.508;2023-07-13T15:40:17;1.95;;;1.08;;
72728;SDS011;60843;52.062;4.508;2023-07-13T15:42:44;3.20;;;1.00;;